sensor_id;sensor_type;location;lat;lon;timestamp;P1;durP1;ratioP1;P2;durP2;ratioP2
76477;SDS011;65309;49.790;18.972;2023-05-17T00:00:58;8.93;;;6.30;;
76477;SDS011;65309;49.790;18.972;2023-05-17T00:06:00;11.98;;;7.85;;
76477;SDS011;65309;49.790;18.972;2023-05-17T00:11:03;9.07;;;6.20;;
76477;SDS011;65309;49.790;18.972;2023-05-17T00:16:06;14.23;;;8.40;;
76477;SDS011;65309;49.790;18.972;2023-05-17T00:21:08;6.82;;;5.35;;
76477;SDS011;65309;49.790;18.972;2023-05-17T00:26:12;10.45;;;7.95;;
76477;SDS011;65309;49.790;18.972;2023-05-17T00:31:14;12.02;;;8.77;;
76477;SDS011;65309;49.790;18.972;2023-05-17T00:36:16;11.25;;;7.55;;
76477;SDS011;65309;49.790;18.972;2023-05-17T00:41:19;11.60;;;8.07;;
76477;SDS011;65309;49.790;18.972;2023-05-17T00:46:21;11.63;;;7.70;;
76477;SDS011;65309;49.790;18.972;2023-05-17T00:51:23;9.77;;;6.97;;
76477;SDS011;65309;49.790;18.972;2023-05-17T00:56:27;11.35;;;7.03;;
76477;SDS011;65309;49.790;18.972;2023-05-17T01:01:29;9.60;;;6.82;;
76477;SDS011;65309;49.790;18.972;2023-05-17T01:06:32;7.75;;;5.70;;
76477;SDS011;65309;49.790;18.972;2023-05-17T01:11:38;9.13;;;5.72;;
76477;SDS011;65309;49.790;18.972;2023-05-17T01:16:50;8.60;;;6.38;;
76477;SDS011;65309;49.790;18.972;2023-05-17T01:21:57;9.80;;;6.65;;
76477;SDS011;65309;49.790;18.972;2023-05-17T01:27:12;9.20;;;6.07;;
76477;SDS011;65309;49.790;18.972;2023-05-17T01:32:17;8.55;;;5.40;;
76477;SDS011;65309;49.790;18.972;2023-05-17T01:37:20;8.00;;;5.93;;
76477;SDS011;65309;49.790;18.972;2023-05-17T01:42:26;7.32;;;6.38;;
76477;SDS011;65309;49.790;18.972;2023-05-17T01:47:32;9.48;;;6.43;;
76477;SDS011;65309;49.790;18.972;2023-05-17T01:52:43;4.13;;;3.35;;
76477;SDS011;65309;49.790;18.972;2023-05-17T01:57:51;4.45;;;3.70;;
76477;SDS011;65309;49.790;18.972;2023-05-17T02:02:54;6.03;;;5.00;;
76477;SDS011;65309;49.790;18.972;2023-05-17T02:07:57;7.18;;;5.80;;
76477;SDS011;65309;49.790;18.972;2023-05-17T02:13:00;6.95;;;5.85;;
76477;SDS011;65309;49.790;18.972;2023-05-17T02:18:02;9.80;;;7.13;;
76477;SDS011;65309;49.790;18.972;2023-05-17T02:23:04;5.35;;;4.03;;
76477;SDS011;65309;49.790;18.972;2023-05-17T02:28:08;8.77;;;6.03;;
76477;SDS011;65309;49.790;18.972;2023-05-17T02:33:10;7.05;;;5.60;;
76477;SDS011;65309;49.790;18.972;2023-05-17T02:38:12;9.75;;;7.03;;
76477;SDS011;65309;49.790;18.972;2023-05-17T02:43:16;9.95;;;5.78;;
76477;SDS011;65309;49.790;18.972;2023-05-17T02:48:18;7.90;;;6.28;;
76477;SDS011;65309;49.790;18.972;2023-05-17T02:53:20;6.05;;;4.32;;
76477;SDS011;65309;49.790;18.972;2023-05-17T02:58:23;9.43;;;6.00;;
76477;SDS011;65309;49.790;18.972;2023-05-17T03:03:25;10.35;;;7.55;;
76477;SDS011;65309;49.790;18.972;2023-05-17T03:08:28;9.30;;;6.15;;
76477;SDS011;65309;49.790;18.972;2023-05-17T03:13:31;8.68;;;6.07;;
76477;SDS011;65309;49.790;18.972;2023-05-17T03:18:33;8.90;;;6.60;;
76477;SDS011;65309;49.790;18.972;2023-05-17T03:23:36;8.98;;;5.15;;
76477;SDS011;65309;49.790;18.972;2023-05-17T03:28:40;11.50;;;6.32;;
76477;SDS011;65309;49.790;18.972;2023-05-17T03:33:42;10.25;;;7.15;;
76477;SDS011;65309;49.790;18.972;2023-05-17T03:38:44;6.07;;;4.78;;
76477;SDS011;65309;49.790;18.972;2023-05-17T03:43:48;9.95;;;6.35;;
76477;SDS011;65309;49.790;18.972;2023-05-17T03:48:50;8.75;;;6.13;;
76477;SDS011;65309;49.790;18.972;2023-05-17T03:53:56;7.93;;;5.88;;
76477;SDS011;65309;49.790;18.972;2023-05-17T03:59:00;7.43;;;5.50;;
76477;SDS011;65309;49.790;18.972;2023-05-17T04:04:02;6.32;;;4.05;;
76477;SDS011;65309;49.790;18.972;2023-05-17T04:09:05;6.43;;;4.13;;
76477;SDS011;65309;49.790;18.972;2023-05-17T04:14:09;6.15;;;4.05;;
76477;SDS011;65309;49.790;18.972;2023-05-17T04:19:11;7.07;;;3.67;;
76477;SDS011;65309;49.790;18.972;2023-05-17T04:24:13;5.25;;;3.33;;
76477;SDS011;65309;49.790;18.972;2023-05-17T04:29:17;6.15;;;4.32;;
76477;SDS011;65309;49.790;18.972;2023-05-17T04:34:19;6.90;;;4.60;;
76477;SDS011;65309;49.790;18.972;2023-05-17T04:39:22;5.57;;;4.45;;
76477;SDS011;65309;49.790;18.972;2023-05-17T04:44:26;4.35;;;3.28;;
76477;SDS011;65309;49.790;18.972;2023-05-17T04:49:28;6.13;;;2.97;;
76477;SDS011;65309;49.790;18.972;2023-05-17T04:54:30;5.03;;;3.28;;
76477;SDS011;65309;49.790;18.972;2023-05-17T04:59:34;4.22;;;2.85;;
76477;SDS011;65309;49.790;18.972;2023-05-17T05:04:36;4.43;;;3.05;;
76477;SDS011;65309;49.790;18.972;2023-05-17T05:09:38;3.50;;;3.08;;
76477;SDS011;65309;49.790;18.972;2023-05-17T05:14:41;3.30;;;2.10;;
76477;SDS011;65309;49.790;18.972;2023-05-17T05:19:43;11.05;;;4.82;;
76477;SDS011;65309;49.790;18.972;2023-05-17T05:24:46;8.25;;;4.82;;
76477;SDS011;65309;49.790;18.972;2023-05-17T05:29:49;7.30;;;3.03;;
76477;SDS011;65309;49.790;18.972;2023-05-17T05:34:53;4.55;;;3.40;;
76477;SDS011;65309;49.790;18.972;2023-05-17T05:39:56;7.90;;;4.43;;
76477;SDS011;65309;49.790;18.972;2023-05-17T05:44:59;9.25;;;4.57;;
76477;SDS011;65309;49.790;18.972;2023-05-17T05:50:01;5.30;;;4.00;;
76477;SDS011;65309;49.790;18.972;2023-05-17T05:55:04;6.25;;;3.60;;
76477;SDS011;65309;49.790;18.972;2023-05-17T06:05:12;3.72;;;2.33;;
76477;SDS011;65309;49.790;18.972;2023-05-17T06:10:14;3.40;;;1.90;;
76477;SDS011;65309;49.790;18.972;2023-05-17T06:15:18;4.88;;;2.97;;
76477;SDS011;65309;49.790;18.972;2023-05-17T06:20:20;9.13;;;3.72;;
76477;SDS011;65309;49.790;18.972;2023-05-17T06:25:22;7.30;;;4.03;;
76477;SDS011;65309;49.790;18.972;2023-05-17T06:30:25;8.88;;;4.03;;
76477;SDS011;65309;49.790;18.972;2023-05-17T06:35:28;9.40;;;4.20;;
76477;SDS011;65309;49.790;18.972;2023-05-17T06:40:41;4.10;;;2.83;;
76477;SDS011;65309;49.790;18.972;2023-05-17T06:45:44;11.00;;;4.30;;
76477;SDS011;65309;49.790;18.972;2023-05-17T06:50:47;9.52;;;5.82;;
76477;SDS011;65309;49.790;18.972;2023-05-17T06:55:49;6.45;;;3.53;;
76477;SDS011;65309;49.790;18.972;2023-05-17T07:00:52;5.85;;;4.28;;
76477;SDS011;65309;49.790;18.972;2023-05-17T07:05:54;6.47;;;4.45;;
76477;SDS011;65309;49.790;18.972;2023-05-17T07:10:56;5.70;;;4.50;;
76477;SDS011;65309;49.790;18.972;2023-05-17T07:16:00;4.15;;;2.95;;
76477;SDS011;65309;49.790;18.972;2023-05-17T07:21:02;10.50;;;4.35;;
76477;SDS011;65309;49.790;18.972;2023-05-17T07:26:04;7.97;;;5.22;;
76477;SDS011;65309;49.790;18.972;2023-05-17T07:31:08;8.10;;;4.20;;
76477;SDS011;65309;49.790;18.972;2023-05-17T07:36:10;10.45;;;4.97;;
76477;SDS011;65309;49.790;18.972;2023-05-17T07:41:12;8.98;;;4.47;;
76477;SDS011;65309;49.790;18.972;2023-05-17T07:46:18;5.90;;;4.35;;
76477;SDS011;65309;49.790;18.972;2023-05-17T07:51:20;10.20;;;5.22;;
76477;SDS011;65309;49.790;18.972;2023-05-17T07:56:22;8.35;;;4.60;;
76477;SDS011;65309;49.790;18.972;2023-05-17T08:01:26;8.32;;;5.47;;
76477;SDS011;65309;49.790;18.972;2023-05-17T08:06:28;4.35;;;3.53;;
76477;SDS011;65309;49.790;18.972;2023-05-17T08:11:30;5.93;;;4.35;;
76477;SDS011;65309;49.790;18.972;2023-05-17T08:16:37;8.30;;;4.82;;
76477;SDS011;65309;49.790;18.972;2023-05-17T08:21:39;11.73;;;6.05;;
76477;SDS011;65309;49.790;18.972;2023-05-17T08:26:41;9.02;;;6.35;;
76477;SDS011;65309;49.790;18.972;2023-05-17T08:31:45;10.05;;;6.32;;
76477;SDS011;65309;49.790;18.972;2023-05-17T08:36:47;9.55;;;6.00;;
76477;SDS011;65309;49.790;18.972;2023-05-17T08:41:49;9.98;;;6.25;;
76477;SDS011;65309;49.790;18.972;2023-05-17T08:46:52;6.30;;;4.60;;
76477;SDS011;65309;49.790;18.972;2023-05-17T08:51:58;7.70;;;5.15;;
76477;SDS011;65309;49.790;18.972;2023-05-17T08:57:01;9.93;;;7.25;;
76477;SDS011;65309;49.790;18.972;2023-05-17T09:02:08;7.70;;;4.80;;
76477;SDS011;65309;49.790;18.972;2023-05-17T09:07:10;6.70;;;5.20;;
76477;SDS011;65309;49.790;18.972;2023-05-17T09:12:13;5.05;;;3.38;;
76477;SDS011;65309;49.790;18.972;2023-05-17T09:17:17;6.43;;;4.18;;
76477;SDS011;65309;49.790;18.972;2023-05-17T09:22:20;8.73;;;4.82;;
76477;SDS011;65309;49.790;18.972;2023-05-17T09:27:22;6.15;;;4.88;;
76477;SDS011;65309;49.790;18.972;2023-05-17T09:32:26;7.22;;;4.93;;
76477;SDS011;65309;49.790;18.972;2023-05-17T09:37:29;6.78;;;4.50;;
76477;SDS011;65309;49.790;18.972;2023-05-17T09:42:33;3.75;;;2.97;;
76477;SDS011;65309;49.790;18.972;2023-05-17T09:47:39;7.00;;;3.83;;
76477;SDS011;65309;49.790;18.972;2023-05-17T09:52:41;10.32;;;5.00;;
76477;SDS011;65309;49.790;18.972;2023-05-17T09:57:43;4.93;;;3.78;;
76477;SDS011;65309;49.790;18.972;2023-05-17T10:02:46;9.00;;;6.90;;
76477;SDS011;65309;49.790;18.972;2023-05-17T10:07:50;5.95;;;3.80;;
76477;SDS011;65309;49.790;18.972;2023-05-17T10:12:57;10.88;;;7.50;;
76477;SDS011;65309;49.790;18.972;2023-05-17T10:18:03;11.25;;;7.65;;
76477;SDS011;65309;49.790;18.972;2023-05-17T10:23:07;10.10;;;7.28;;
76477;SDS011;65309;49.790;18.972;2023-05-17T10:28:09;15.32;;;8.10;;
76477;SDS011;65309;49.790;18.972;2023-05-17T10:33:14;10.35;;;6.93;;
76477;SDS011;65309;49.790;18.972;2023-05-17T10:38:19;11.98;;;6.43;;
76477;SDS011;65309;49.790;18.972;2023-05-17T10:43:27;10.25;;;6.15;;
76477;SDS011;65309;49.790;18.972;2023-05-17T10:48:32;8.27;;;5.90;;
76477;SDS011;65309;49.790;18.972;2023-05-17T10:53:47;10.05;;;6.18;;
76477;SDS011;65309;49.790;18.972;2023-05-17T10:59:14;6.00;;;5.05;;
76477;SDS011;65309;49.790;18.972;2023-05-17T11:04:23;4.55;;;3.28;;
76477;SDS011;65309;49.790;18.972;2023-05-17T11:09:27;8.65;;;5.70;;
76477;SDS011;65309;49.790;18.972;2023-05-17T11:14:42;9.40;;;5.57;;
76477;SDS011;65309;49.790;18.972;2023-05-17T11:19:49;14.40;;;7.88;;
76477;SDS011;65309;49.790;18.972;2023-05-17T11:24:59;15.57;;;8.90;;
76477;SDS011;65309;49.790;18.972;2023-05-17T11:30:06;18.40;;;10.10;;
76477;SDS011;65309;49.790;18.972;2023-05-17T11:35:12;15.52;;;9.85;;
76477;SDS011;65309;49.790;18.972;2023-05-17T11:40:17;12.82;;;8.23;;
76477;SDS011;65309;49.790;18.972;2023-05-17T11:45:26;21.90;;;12.10;;
76477;SDS011;65309;49.790;18.972;2023-05-17T11:50:30;10.35;;;7.38;;
76477;SDS011;65309;49.790;18.972;2023-05-17T11:55:32;13.20;;;9.27;;
76477;SDS011;65309;49.790;18.972;2023-05-17T12:00:38;12.95;;;8.85;;
76477;SDS011;65309;49.790;18.972;2023-05-17T12:05:44;11.32;;;8.02;;
76477;SDS011;65309;49.790;18.972;2023-05-17T12:10:47;14.38;;;9.00;;
76477;SDS011;65309;49.790;18.972;2023-05-17T12:15:52;22.95;;;13.80;;
76477;SDS011;65309;49.790;18.972;2023-05-17T12:20:58;21.13;;;10.90;;
76477;SDS011;65309;49.790;18.972;2023-05-17T12:26:01;12.93;;;6.88;;
76477;SDS011;65309;49.790;18.972;2023-05-17T12:31:08;13.40;;;9.05;;
76477;SDS011;65309;49.790;18.972;2023-05-17T12:36:14;9.45;;;7.75;;
76477;SDS011;65309;49.790;18.972;2023-05-17T12:41:16;10.13;;;6.18;;
76477;SDS011;65309;49.790;18.972;2023-05-17T12:46:20;18.38;;;10.02;;
76477;SDS011;65309;49.790;18.972;2023-05-17T12:51:24;14.40;;;8.90;;
76477;SDS011;65309;49.790;18.972;2023-05-17T12:56:27;16.88;;;11.43;;
76477;SDS011;65309;49.790;18.972;2023-05-17T13:01:31;19.50;;;9.80;;
76477;SDS011;65309;49.790;18.972;2023-05-17T13:06:45;8.85;;;5.40;;
76477;SDS011;65309;49.790;18.972;2023-05-17T13:11:51;14.40;;;9.93;;
76477;SDS011;65309;49.790;18.972;2023-05-17T13:16:55;28.40;;;15.45;;
76477;SDS011;65309;49.790;18.972;2023-05-17T13:21:58;16.88;;;10.43;;
76477;SDS011;65309;49.790;18.972;2023-05-17T13:27:00;12.40;;;8.50;;
76477;SDS011;65309;49.790;18.972;2023-05-17T13:32:03;6.32;;;5.10;;
76477;SDS011;65309;49.790;18.972;2023-05-17T13:42:13;4.93;;;3.53;;
76477;SDS011;65309;49.790;18.972;2023-05-17T13:47:15;9.95;;;5.70;;
76477;SDS011;65309;49.790;18.972;2023-05-17T13:52:18;11.18;;;8.65;;
76477;SDS011;65309;49.790;18.972;2023-05-17T13:57:20;8.20;;;5.05;;
76477;SDS011;65309;49.790;18.972;2023-05-17T14:02:22;10.82;;;6.05;;
76477;SDS011;65309;49.790;18.972;2023-05-17T14:07:26;9.65;;;6.20;;
76477;SDS011;65309;49.790;18.972;2023-05-17T14:17:30;7.85;;;4.97;;
76477;SDS011;65309;49.790;18.972;2023-05-17T14:22:35;5.55;;;4.05;;
76477;SDS011;65309;49.790;18.972;2023-05-17T14:27:37;14.65;;;6.07;;
76477;SDS011;65309;49.790;18.972;2023-05-17T14:32:39;8.15;;;5.68;;
76477;SDS011;65309;49.790;18.972;2023-05-17T14:37:42;12.63;;;6.15;;
76477;SDS011;65309;49.790;18.972;2023-05-17T14:42:44;11.05;;;6.93;;
76477;SDS011;65309;49.790;18.972;2023-05-17T14:47:47;8.18;;;5.05;;
76477;SDS011;65309;49.790;18.972;2023-05-17T14:52:50;8.68;;;5.95;;
76477;SDS011;65309;49.790;18.972;2023-05-17T14:57:52;7.70;;;5.53;;
76477;SDS011;65309;49.790;18.972;2023-05-17T15:02:55;8.50;;;5.28;;
76477;SDS011;65309;49.790;18.972;2023-05-17T15:07:59;6.68;;;4.93;;
76477;SDS011;65309;49.790;18.972;2023-05-17T15:13:01;7.70;;;5.53;;
76477;SDS011;65309;49.790;18.972;2023-05-17T15:18:03;9.07;;;5.30;;
76477;SDS011;65309;49.790;18.972;2023-05-17T15:23:07;7.00;;;4.82;;
76477;SDS011;65309;49.790;18.972;2023-05-17T15:28:09;11.35;;;4.63;;
76477;SDS011;65309;49.790;18.972;2023-05-17T15:33:11;10.20;;;4.28;;
76477;SDS011;65309;49.790;18.972;2023-05-17T15:38:15;5.95;;;3.90;;
76477;SDS011;65309;49.790;18.972;2023-05-17T15:43:17;9.07;;;4.30;;
76477;SDS011;65309;49.790;18.972;2023-05-17T15:48:19;13.80;;;5.82;;
76477;SDS011;65309;49.790;18.972;2023-05-17T15:53:25;8.38;;;5.50;;
76477;SDS011;65309;49.790;18.972;2023-05-17T15:58:29;10.48;;;5.55;;
76477;SDS011;65309;49.790;18.972;2023-05-17T16:03:34;9.30;;;4.50;;
